sensor_id;sensor_type;location;lat;lon;timestamp;pressure;altitude;pressure_sealevel;temperature;humidity
68822;BME280;55834;50.870;4.606;2023-05-08T00:00:05;101342.13;;;14.38;58.32
68822;BME280;55834;50.870;4.606;2023-05-08T00:02:30;101339.25;;;14.44;59.44
68822;BME280;55834;50.870;4.606;2023-05-08T00:04:56;101345.03;;;14.57;58.14
68822;BME280;55834;50.870;4.606;2023-05-08T00:07:21;101343.84;;;14.65;56.97
68822;BME280;55834;50.870;4.606;2023-05-08T00:09:47;101341.78;;;14.49;56.27
68822;BME280;55834;50.870;4.606;2023-05-08T00:12:12;101343.81;;;14.40;56.73
68822;BME280;55834;50.870;4.606;2023-05-08T00:14:38;101341.66;;;14.52;57.13
68822;BME280;55834;50.870;4.606;2023-05-08T00:17:03;101337.81;;;14.60;56.46
68822;BME280;55834;50.870;4.606;2023-05-08T00:19:29;101331.66;;;14.60;55.90
68822;BME280;55834;50.870;4.606;2023-05-08T00:21:54;101343.09;;;14.62;55.88
68822;BME280;55834;50.870;4.606;2023-05-08T00:24:20;101336.78;;;14.64;55.38
68822;BME280;55834;50.870;4.606;2023-05-08T00:26:45;101334.31;;;14.60;54.75
68822;BME280;55834;50.870;4.606;2023-05-08T00:29:11;101335.84;;;14.15;57.41
68822;BME280;55834;50.870;4.606;2023-05-08T00:31:36;101341.69;;;13.98;59.13
68822;BME280;55834;50.870;4.606;2023-05-08T00:34:01;101335.88;;;14.14;58.67
68822;BME280;55834;50.870;4.606;2023-05-08T00:36:27;101337.13;;;14.29;57.64
68822;BME280;55834;50.870;4.606;2023-05-08T00:38:52;101346.53;;;14.39;56.87
68822;BME280;55834;50.870;4.606;2023-05-08T00:41:18;101340.13;;;14.44;56.48
68822;BME280;55834;50.870;4.606;2023-05-08T00:43:43;101342.59;;;14.51;56.02
68822;BME280;55834;50.870;4.606;2023-05-08T00:46:10;101343.41;;;14.53;55.66
68822;BME280;55834;50.870;4.606;2023-05-08T00:48:36;101340.06;;;14.48;55.13
68822;BME280;55834;50.870;4.606;2023-05-08T00:51:04;101341.78;;;14.49;55.12
68822;BME280;55834;50.870;4.606;2023-05-08T00:53:32;101344.72;;;14.39;54.42
68822;BME280;55834;50.870;4.606;2023-05-08T00:56:00;101341.69;;;14.25;56.71
68822;BME280;55834;50.870;4.606;2023-05-08T00:58:26;101339.28;;;14.17;56.27
68822;BME280;55834;50.870;4.606;2023-05-08T01:00:52;101341.28;;;14.11;56.34
68822;BME280;55834;50.870;4.606;2023-05-08T01:03:20;101339.59;;;14.08;56.87
68822;BME280;55834;50.870;4.606;2023-05-08T01:05:47;101343.78;;;14.15;56.87
68822;BME280;55834;50.870;4.606;2023-05-08T01:08:12;101343.50;;;14.23;56.82
68822;BME280;55834;50.870;4.606;2023-05-08T01:11:04;101340.84;;;14.23;56.62
68822;BME280;55834;50.870;4.606;2023-05-08T01:16:21;101339.69;;;13.79;57.89
68822;BME280;55834;50.870;4.606;2023-05-08T01:21:54;101338.53;;;13.59;60.14
68822;BME280;55834;50.870;4.606;2023-05-08T01:30:18;101352.63;;;13.31;61.90
68822;BME280;55834;50.870;4.606;2023-05-08T01:33:01;101357.50;;;13.45;62.65
68822;BME280;55834;50.870;4.606;2023-05-08T01:35:35;101353.28;;;13.68;61.88
68822;BME280;55834;50.870;4.606;2023-05-08T01:38:07;101354.59;;;13.83;60.66
68822;BME280;55834;50.870;4.606;2023-05-08T01:40:53;101349.66;;;13.98;60.33
68822;BME280;55834;50.870;4.606;2023-05-08T01:46:17;101353.69;;;14.10;59.88
68822;BME280;55834;50.870;4.606;2023-05-08T01:48:49;101348.81;;;14.23;59.44
68822;BME280;55834;50.870;4.606;2023-05-08T01:51:18;101357.38;;;14.33;59.39
68822;BME280;55834;50.870;4.606;2023-05-08T01:53:52;101363.38;;;14.38;59.05
68822;BME280;55834;50.870;4.606;2023-05-08T01:56:22;101361.69;;;14.35;59.42
68822;BME280;55834;50.870;4.606;2023-05-08T01:58:53;101361.50;;;14.41;59.44
68822;BME280;55834;50.870;4.606;2023-05-08T02:01:22;101358.66;;;14.48;59.39
68822;BME280;55834;50.870;4.606;2023-05-08T02:03:48;101367.53;;;14.47;59.54
68822;BME280;55834;50.870;4.606;2023-05-08T02:06:17;101366.41;;;14.54;59.39
68822;BME280;55834;50.870;4.606;2023-05-08T02:08:44;101362.66;;;14.59;59.20
68822;BME280;55834;50.870;4.606;2023-05-08T02:11:11;101371.31;;;14.64;58.76
68822;BME280;55834;50.870;4.606;2023-05-08T02:13:38;101366.78;;;14.68;59.70
68822;BME280;55834;50.870;4.606;2023-05-08T02:16:06;101366.31;;;14.57;59.54
68822;BME280;55834;50.870;4.606;2023-05-08T02:18:33;101364.47;;;14.06;62.10
68822;BME280;55834;50.870;4.606;2023-05-08T02:21:01;101374.78;;;14.15;63.39
68822;BME280;55834;50.870;4.606;2023-05-08T02:23:28;101375.13;;;14.31;63.47
68822;BME280;55834;50.870;4.606;2023-05-08T02:25:55;101363.34;;;14.39;62.88
68822;BME280;55834;50.870;4.606;2023-05-08T02:28:22;101364.53;;;14.56;62.15
68822;BME280;55834;50.870;4.606;2023-05-08T02:30:49;101369.81;;;14.57;61.25
68822;BME280;55834;50.870;4.606;2023-05-08T02:33:15;101364.16;;;14.66;61.68
68822;BME280;55834;50.870;4.606;2023-05-08T02:35:43;101366.47;;;14.77;61.18
68822;BME280;55834;50.870;4.606;2023-05-08T02:38:11;101370.69;;;14.58;61.13
68822;BME280;55834;50.870;4.606;2023-05-08T02:40:41;101373.91;;;14.68;61.89
68822;BME280;55834;50.870;4.606;2023-05-08T02:43:09;101368.41;;;14.72;61.46
68822;BME280;55834;50.870;4.606;2023-05-08T02:48:41;101372.16;;;14.66;61.19
68822;BME280;55834;50.870;4.606;2023-05-08T02:54:19;101361.25;;;14.49;61.30
68822;BME280;55834;50.870;4.606;2023-05-08T02:56:53;101367.81;;;13.56;63.49
68822;BME280;55834;50.870;4.606;2023-05-08T02:59:27;101369.16;;;13.40;65.78
68822;BME280;55834;50.870;4.606;2023-05-08T03:01:59;101357.94;;;13.89;65.48
68822;BME280;55834;50.870;4.606;2023-05-08T03:04:33;101361.78;;;13.79;63.43
68822;BME280;55834;50.870;4.606;2023-05-08T03:07:01;101360.13;;;13.45;65.98
68822;BME280;55834;50.870;4.606;2023-05-08T03:09:36;101356.38;;;13.82;65.51
68822;BME280;55834;50.870;4.606;2023-05-08T03:12:06;101369.69;;;13.51;63.58
68822;BME280;55834;50.870;4.606;2023-05-08T03:14:36;101364.75;;;13.70;66.08
68822;BME280;55834;50.870;4.606;2023-05-08T03:17:07;101364.13;;;13.60;66.11
68822;BME280;55834;50.870;4.606;2023-05-08T03:19:36;101369.50;;;13.59;64.14
68822;BME280;55834;50.870;4.606;2023-05-08T03:22:04;101365.63;;;13.69;63.70
68822;BME280;55834;50.870;4.606;2023-05-08T03:24:33;101369.44;;;13.60;63.53
68822;BME280;55834;50.870;4.606;2023-05-08T03:27:02;101364.66;;;13.43;63.95
68822;BME280;55834;50.870;4.606;2023-05-08T03:29:28;101368.72;;;13.83;64.74
68822;BME280;55834;50.870;4.606;2023-05-08T03:31:56;101364.22;;;13.57;64.69
68822;BME280;55834;50.870;4.606;2023-05-08T03:34:23;101375.38;;;13.39;64.08
68822;BME280;55834;50.870;4.606;2023-05-08T03:36:49;101365.28;;;13.81;64.70
68822;BME280;55834;50.870;4.606;2023-05-08T03:39:15;101374.63;;;13.93;63.53
68822;BME280;55834;50.870;4.606;2023-05-08T03:41:40;101379.63;;;13.74;62.66
68822;BME280;55834;50.870;4.606;2023-05-08T03:44:06;101371.28;;;13.86;63.13
68822;BME280;55834;50.870;4.606;2023-05-08T03:46:33;101359.66;;;13.90;61.88
68822;BME280;55834;50.870;4.606;2023-05-08T03:49:02;101366.19;;;13.21;63.35
68822;BME280;55834;50.870;4.606;2023-05-08T03:51:28;101362.00;;;13.71;64.46
68822;BME280;55834;50.870;4.606;2023-05-08T03:53:55;101367.63;;;13.90;62.97
68822;BME280;55834;50.870;4.606;2023-05-08T03:56:21;101360.00;;;13.50;62.74
68822;BME280;55834;50.870;4.606;2023-05-08T03:58:50;101360.13;;;13.45;64.77
68822;BME280;55834;50.870;4.606;2023-05-08T04:01:38;101358.50;;;13.71;63.88
68822;BME280;55834;50.870;4.606;2023-05-08T04:09:43;101364.66;;;13.71;63.12
68822;BME280;55834;50.870;4.606;2023-05-08T04:14:42;101367.31;;;13.99;61.58
68822;BME280;55834;50.870;4.606;2023-05-08T04:17:11;101366.38;;;13.74;62.86
68822;BME280;55834;50.870;4.606;2023-05-08T04:19:47;101366.75;;;13.90;62.60
68822;BME280;55834;50.870;4.606;2023-05-08T04:22:19;101369.78;;;13.77;61.62
68822;BME280;55834;50.870;4.606;2023-05-08T04:24:47;101367.06;;;14.07;61.98
68822;BME280;55834;50.870;4.606;2023-05-08T04:27:14;101371.44;;;13.82;62.02
68822;BME280;55834;50.870;4.606;2023-05-08T04:29:40;101367.00;;;14.09;62.81
68822;BME280;55834;50.870;4.606;2023-05-08T04:32:06;101373.03;;;14.14;61.02
68822;BME280;55834;50.870;4.606;2023-05-08T04:34:33;101375.56;;;14.18;61.17
68822;BME280;55834;50.870;4.606;2023-05-08T04:36:59;101377.13;;;14.24;61.28
68822;BME280;55834;50.870;4.606;2023-05-08T04:39:25;101377.91;;;14.01;60.66
68822;BME280;55834;50.870;4.606;2023-05-08T04:41:50;101385.16;;;13.94;61.49
68822;BME280;55834;50.870;4.606;2023-05-08T04:44:16;101386.09;;;13.93;61.60
68822;BME280;55834;50.870;4.606;2023-05-08T04:46:42;101387.25;;;13.85;62.46
68822;BME280;55834;50.870;4.606;2023-05-08T04:49:07;101389.50;;;13.39;63.38
68822;BME280;55834;50.870;4.606;2023-05-08T04:51:33;101390.16;;;13.47;63.42
68822;BME280;55834;50.870;4.606;2023-05-08T04:53:58;101388.91;;;13.61;63.36
68822;BME280;55834;50.870;4.606;2023-05-08T04:56:24;101393.38;;;13.59;62.77
68822;BME280;55834;50.870;4.606;2023-05-08T04:58:51;101395.19;;;13.58;61.93
68822;BME280;55834;50.870;4.606;2023-05-08T05:01:16;101394.78;;;13.70;62.97
68822;BME280;55834;50.870;4.606;2023-05-08T05:03:41;101403.31;;;13.80;62.72
68822;BME280;55834;50.870;4.606;2023-05-08T05:06:07;101400.88;;;14.02;62.82
68822;BME280;55834;50.870;4.606;2023-05-08T05:08:33;101405.50;;;13.36;62.36
68822;BME280;55834;50.870;4.606;2023-05-08T05:10:58;101402.72;;;13.72;63.71
68822;BME280;55834;50.870;4.606;2023-05-08T05:13:24;101413.09;;;13.48;63.71
68822;BME280;55834;50.870;4.606;2023-05-08T05:15:49;101414.78;;;13.82;63.69
68822;BME280;55834;50.870;4.606;2023-05-08T05:18:19;101429.38;;;12.74;64.53
68822;BME280;55834;50.870;4.606;2023-05-08T05:20:45;101424.06;;;13.38;65.10
68822;BME280;55834;50.870;4.606;2023-05-08T05:23:11;101428.53;;;13.34;63.75
68822;BME280;55834;50.870;4.606;2023-05-08T05:25:36;101428.47;;;13.37;63.85
68822;BME280;55834;50.870;4.606;2023-05-08T05:28:02;101428.22;;;13.76;63.19
68822;BME280;55834;50.870;4.606;2023-05-08T05:30:27;101439.25;;;13.62;63.15
68822;BME280;55834;50.870;4.606;2023-05-08T05:32:55;101434.47;;;13.75;64.16
68822;BME280;55834;50.870;4.606;2023-05-08T05:35:21;101441.16;;;13.57;62.83
68822;BME280;55834;50.870;4.606;2023-05-08T05:37:46;101445.22;;;13.39;62.79
68822;BME280;55834;50.870;4.606;2023-05-08T05:40:11;101448.81;;;13.37;64.65
68822;BME280;55834;50.870;4.606;2023-05-08T05:42:38;101440.91;;;13.66;63.84
68822;BME280;55834;50.870;4.606;2023-05-08T05:45:04;101448.00;;;13.95;63.47
68822;BME280;55834;50.870;4.606;2023-05-08T05:47:29;101453.81;;;13.79;61.50
68822;BME280;55834;50.870;4.606;2023-05-08T05:49:56;101454.84;;;12.78;65.15
68822;BME280;55834;50.870;4.606;2023-05-08T05:52:21;101454.78;;;13.45;65.35
68822;BME280;55834;50.870;4.606;2023-05-08T05:54:47;101451.66;;;13.62;63.32
68822;BME280;55834;50.870;4.606;2023-05-08T05:57:13;101453.41;;;13.92;63.40
68822;BME280;55834;50.870;4.606;2023-05-08T05:59:39;101459.19;;;14.05;62.40
68822;BME280;55834;50.870;4.606;2023-05-08T06:02:05;101451.41;;;14.27;61.67
68822;BME280;55834;50.870;4.606;2023-05-08T06:04:32;101463.31;;;14.42;61.08
68822;BME280;55834;50.870;4.606;2023-05-08T06:06:58;101462.44;;;13.85;61.09
68822;BME280;55834;50.870;4.606;2023-05-08T06:09:23;101464.56;;;13.74;61.86
68822;BME280;55834;50.870;4.606;2023-05-08T06:11:48;101458.72;;;13.91;62.17
68822;BME280;55834;50.870;4.606;2023-05-08T06:14:14;101465.59;;;13.98;61.90
68822;BME280;55834;50.870;4.606;2023-05-08T06:16:40;101466.22;;;14.34;62.37
68822;BME280;55834;50.870;4.606;2023-05-08T06:19:06;101464.19;;;14.42;60.46
68822;BME280;55834;50.870;4.606;2023-05-08T06:21:31;101471.50;;;14.62;60.71
68822;BME280;55834;50.870;4.606;2023-05-08T06:23:58;101462.72;;;14.32;60.15
68822;BME280;55834;50.870;4.606;2023-05-08T06:26:24;101453.91;;;14.58;61.37
68822;BME280;55834;50.870;4.606;2023-05-08T06:28:50;101460.50;;;14.47;59.90
68822;BME280;55834;50.870;4.606;2023-05-08T06:31:15;101456.03;;;14.49;60.16
68822;BME280;55834;50.870;4.606;2023-05-08T06:33:41;101456.00;;;14.50;61.00
68822;BME280;55834;50.870;4.606;2023-05-08T06:36:06;101461.75;;;14.35;60.60
68822;BME280;55834;50.870;4.606;2023-05-08T06:38:32;101464.38;;;14.36;60.75
68822;BME280;55834;50.870;4.606;2023-05-08T06:40:57;101456.69;;;14.55;60.41
68822;BME280;55834;50.870;4.606;2023-05-08T06:43:22;101458.44;;;14.28;61.77
68822;BME280;55834;50.870;4.606;2023-05-08T06:45:48;101453.38;;;14.49;61.74
68822;BME280;55834;50.870;4.606;2023-05-08T06:48:13;101452.59;;;14.17;61.45
68822;BME280;55834;50.870;4.606;2023-05-08T06:50:40;101451.75;;;14.16;62.44
68822;BME280;55834;50.870;4.606;2023-05-08T06:53:10;101461.16;;;13.69;62.97
68822;BME280;55834;50.870;4.606;2023-05-08T06:55:36;101461.84;;;14.32;62.62
68822;BME280;55834;50.870;4.606;2023-05-08T06:58:01;101468.56;;;14.45;61.10
68822;BME280;55834;50.870;4.606;2023-05-08T07:00:27;101467.63;;;14.46;61.54
68822;BME280;55834;50.870;4.606;2023-05-08T07:02:52;101478.06;;;14.24;60.95
68822;BME280;55834;50.870;4.606;2023-05-08T07:05:18;101474.88;;;13.83;62.76
68822;BME280;55834;50.870;4.606;2023-05-08T07:07:44;101473.75;;;14.20;61.28
68822;BME280;55834;50.870;4.606;2023-05-08T07:10:09;101472.56;;;13.72;62.30
68822;BME280;55834;50.870;4.606;2023-05-08T07:12:35;101462.38;;;14.16;61.78
68822;BME280;55834;50.870;4.606;2023-05-08T07:15:01;101463.38;;;13.53;64.25
68822;BME280;55834;50.870;4.606;2023-05-08T07:17:26;101463.78;;;13.39;63.34
68822;BME280;55834;50.870;4.606;2023-05-08T07:19:52;101457.44;;;13.74;63.86
68822;BME280;55834;50.870;4.606;2023-05-08T07:22:17;101471.16;;;13.90;62.99
68822;BME280;55834;50.870;4.606;2023-05-08T07:24:43;101473.09;;;14.40;62.56
68822;BME280;55834;50.870;4.606;2023-05-08T07:27:08;101472.16;;;14.69;60.48
68822;BME280;55834;50.870;4.606;2023-05-08T07:29:34;101476.75;;;14.91;60.07
68822;BME280;55834;50.870;4.606;2023-05-08T07:32:06;101474.53;;;15.03;58.83
68822;BME280;55834;50.870;4.606;2023-05-08T07:34:32;101477.72;;;15.13;58.68
68822;BME280;55834;50.870;4.606;2023-05-08T07:36:58;101473.19;;;15.17;58.79
68822;BME280;55834;50.870;4.606;2023-05-08T07:39:24;101470.22;;;15.24;57.39
68822;BME280;55834;50.870;4.606;2023-05-08T07:41:50;101478.75;;;14.29;60.08
68822;BME280;55834;50.870;4.606;2023-05-08T07:44:15;101473.50;;;14.82;60.39
68822;BME280;55834;50.870;4.606;2023-05-08T07:46:41;101472.31;;;14.64;60.46
68822;BME280;55834;50.870;4.606;2023-05-08T07:49:07;101478.75;;;14.29;61.82
68822;BME280;55834;50.870;4.606;2023-05-08T07:51:32;101485.28;;;13.28;63.71
68822;BME280;55834;50.870;4.606;2023-05-08T07:54:02;101479.41;;;13.48;63.58
68822;BME280;55834;50.870;4.606;2023-05-08T07:56:28;101478.31;;;14.15;63.22
68822;BME280;55834;50.870;4.606;2023-05-08T07:58:53;101483.78;;;14.66;62.32
68822;BME280;55834;50.870;4.606;2023-05-08T08:01:19;101482.88;;;14.68;59.58
68822;BME280;55834;50.870;4.606;2023-05-08T08:03:45;101476.44;;;13.90;62.06
68822;BME280;55834;50.870;4.606;2023-05-08T08:06:10;101478.81;;;14.82;61.46
68822;BME280;55834;50.870;4.606;2023-05-08T08:08:36;101487.56;;;14.31;60.88
68822;BME280;55834;50.870;4.606;2023-05-08T08:11:01;101484.34;;;14.76;59.35
68822;BME280;55834;50.870;4.606;2023-05-08T08:13:27;101489.28;;;13.76;62.63
68822;BME280;55834;50.870;4.606;2023-05-08T08:15:52;101489.44;;;14.56;61.95
68822;BME280;55834;50.870;4.606;2023-05-08T08:18:18;101482.31;;;15.34;61.01
68822;BME280;55834;50.870;4.606;2023-05-08T08:20:43;101480.41;;;15.85;57.99
68822;BME280;55834;50.870;4.606;2023-05-08T08:23:09;101478.84;;;16.25;56.76
68822;BME280;55834;50.870;4.606;2023-05-08T08:25:35;101482.56;;;16.43;56.42
68822;BME280;55834;50.870;4.606;2023-05-08T08:28:00;101480.88;;;16.62;56.56
68822;BME280;55834;50.870;4.606;2023-05-08T08:30:26;101490.44;;;15.55;57.28
68822;BME280;55834;50.870;4.606;2023-05-08T08:32:51;101479.25;;;15.92;58.14
68822;BME280;55834;50.870;4.606;2023-05-08T08:35:17;101465.75;;;15.73;56.77
68822;BME280;55834;50.870;4.606;2023-05-08T08:37:42;101468.97;;;16.05;57.58
68822;BME280;55834;50.870;4.606;2023-05-08T08:40:08;101472.94;;;15.95;56.24
68822;BME280;55834;50.870;4.606;2023-05-08T08:42:34;101468.22;;;16.01;56.53
68822;BME280;55834;50.870;4.606;2023-05-08T08:44:59;101470.47;;;15.89;57.02
68822;BME280;55834;50.870;4.606;2023-05-08T08:47:34;101474.59;;;16.21;55.56
68822;BME280;55834;50.870;4.606;2023-05-08T08:50:22;101486.97;;;16.44;55.19
68822;BME280;55834;50.870;4.606;2023-05-08T08:53:06;101472.34;;;15.87;55.78
68822;BME280;55834;50.870;4.606;2023-05-08T08:55:39;101477.28;;;15.74;56.96
68822;BME280;55834;50.870;4.606;2023-05-08T08:58:35;101482.06;;;15.88;56.50
68822;BME280;55834;50.870;4.606;2023-05-08T09:01:01;101477.97;;;15.30;59.06
68822;BME280;55834;50.870;4.606;2023-05-08T09:03:30;101490.38;;;15.31;58.50
68822;BME280;55834;50.870;4.606;2023-05-08T09:05:58;101483.06;;;14.88;60.47
68822;BME280;55834;50.870;4.606;2023-05-08T09:08:24;101484.63;;;15.44;58.79
68822;BME280;55834;50.870;4.606;2023-05-08T09:10:51;101492.97;;;15.34;57.80
68822;BME280;55834;50.870;4.606;2023-05-08T09:13:18;101495.56;;;14.58;59.52
68822;BME280;55834;50.870;4.606;2023-05-08T09:15:44;101482.19;;;15.12;60.66
68822;BME280;55834;50.870;4.606;2023-05-08T09:18:10;101480.91;;;15.71;59.05
68822;BME280;55834;50.870;4.606;2023-05-08T09:20:36;101488.09;;;16.16;58.08
68822;BME280;55834;50.870;4.606;2023-05-08T09:23:05;101476.75;;;15.88;56.19
68822;BME280;55834;50.870;4.606;2023-05-08T09:25:43;101475.72;;;16.14;57.99
68822;BME280;55834;50.870;4.606;2023-05-08T09:30:50;101474.50;;;16.44;56.80
68822;BME280;55834;50.870;4.606;2023-05-08T09:33:16;101476.81;;;16.74;54.99
68822;BME280;55834;50.870;4.606;2023-05-08T09:35:42;101477.06;;;17.10;54.01
68822;BME280;55834;50.870;4.606;2023-05-08T09:38:07;101471.13;;;17.43;54.10
68822;BME280;55834;50.870;4.606;2023-05-08T09:40:33;101474.16;;;17.35;53.45
68822;BME280;55834;50.870;4.606;2023-05-08T09:43:11;101463.72;;;17.69;54.18
68822;BME280;55834;50.870;4.606;2023-05-08T09:45:40;101463.50;;;17.73;53.55
68822;BME280;55834;50.870;4.606;2023-05-08T09:48:09;101462.41;;;17.40;55.18
68822;BME280;55834;50.870;4.606;2023-05-08T09:50:35;101470.38;;;15.68;56.31
68822;BME280;55834;50.870;4.606;2023-05-08T09:53:01;101464.25;;;15.90;57.57
68822;BME280;55834;50.870;4.606;2023-05-08T09:55:26;101474.03;;;16.11;56.85
68822;BME280;55834;50.870;4.606;2023-05-08T09:57:57;101472.59;;;16.68;56.39
68822;BME280;55834;50.870;4.606;2023-05-08T10:00:26;101474.06;;;16.76;53.66
68822;BME280;55834;50.870;4.606;2023-05-08T10:02:58;101469.41;;;17.22;54.27
68822;BME280;55834;50.870;4.606;2023-05-08T10:05:29;101472.03;;;17.63;54.78
68822;BME280;55834;50.870;4.606;2023-05-08T10:07:58;101469.88;;;17.90;54.18
68822;BME280;55834;50.870;4.606;2023-05-08T10:10:41;101472.16;;;17.59;52.82
68822;BME280;55834;50.870;4.606;2023-05-08T10:13:06;101472.19;;;17.39;52.04
68822;BME280;55834;50.870;4.606;2023-05-08T10:15:33;101476.84;;;17.54;53.45
68822;BME280;55834;50.870;4.606;2023-05-08T10:18:05;101477.19;;;17.28;51.78
68822;BME280;55834;50.870;4.606;2023-05-08T10:20:33;101471.72;;;17.31;52.65
68822;BME280;55834;50.870;4.606;2023-05-08T10:22:59;101468.66;;;17.97;52.64
68822;BME280;55834;50.870;4.606;2023-05-08T10:25:31;101470.41;;;17.98;50.41
68822;BME280;55834;50.870;4.606;2023-05-08T10:28:08;101472.94;;;17.43;51.07
68822;BME280;55834;50.870;4.606;2023-05-08T10:30:37;101472.34;;;17.94;51.60
68822;BME280;55834;50.870;4.606;2023-05-08T10:33:09;101469.19;;;17.86;49.13
68822;BME280;55834;50.870;4.606;2023-05-08T10:35:38;101466.03;;;17.57;49.98
68822;BME280;55834;50.870;4.606;2023-05-08T10:38:07;101467.13;;;17.91;50.56
68822;BME280;55834;50.870;4.606;2023-05-08T10:40:33;101463.38;;;17.95;50.23
68822;BME280;55834;50.870;4.606;2023-05-08T10:42:59;101460.72;;;17.95;50.00
68822;BME280;55834;50.870;4.606;2023-05-08T10:45:25;101456.41;;;18.29;49.60
68822;BME280;55834;50.870;4.606;2023-05-08T10:50:55;101455.97;;;19.08;49.08
68822;BME280;55834;50.870;4.606;2023-05-08T10:56:04;101454.75;;;18.26;48.40
68822;BME280;55834;50.870;4.606;2023-05-08T10:58:35;101451.03;;;17.93;49.80
68822;BME280;55834;50.870;4.606;2023-05-08T11:03:41;101445.66;;;18.48;48.13
68822;BME280;55834;50.870;4.606;2023-05-08T11:06:07;101448.28;;;18.84;48.96
68822;BME280;55834;50.870;4.606;2023-05-08T11:08:43;101447.38;;;19.01;49.05
68822;BME280;55834;50.870;4.606;2023-05-08T11:11:23;101444.34;;;19.58;48.16
68822;BME280;55834;50.870;4.606;2023-05-08T11:13:53;101446.31;;;19.38;47.15
68822;BME280;55834;50.870;4.606;2023-05-08T11:17:21;101438.13;;;18.91;46.46
68822;BME280;55834;50.870;4.606;2023-05-08T11:19:27;101436.06;;;18.96;45.86
68822;BME280;55834;50.870;4.606;2023-05-08T11:22:13;101431.53;;;19.31;47.47
68822;BME280;55834;50.870;4.606;2023-05-08T11:24:39;101433.59;;;18.76;46.91
68822;BME280;55834;50.870;4.606;2023-05-08T11:27:05;101437.78;;;18.45;48.41
68822;BME280;55834;50.870;4.606;2023-05-08T11:29:31;101430.81;;;18.77;48.19
68822;BME280;55834;50.870;4.606;2023-05-08T11:31:57;101428.50;;;18.87;48.15
68822;BME280;55834;50.870;4.606;2023-05-08T11:37:19;101431.13;;;18.71;47.63
68822;BME280;55834;50.870;4.606;2023-05-08T11:39:46;101429.38;;;18.35;48.11
68822;BME280;55834;50.870;4.606;2023-05-08T11:45:18;101423.72;;;18.93;48.34
68822;BME280;55834;50.870;4.606;2023-05-08T11:47:44;101419.81;;;18.66;48.41
68822;BME280;55834;50.870;4.606;2023-05-08T11:50:11;101419.59;;;18.34;49.29
68822;BME280;55834;50.870;4.606;2023-05-08T11:52:39;101421.00;;;17.69;50.45
68822;BME280;55834;50.870;4.606;2023-05-08T11:55:06;101422.41;;;18.14;49.46
68822;BME280;55834;50.870;4.606;2023-05-08T11:57:32;101413.38;;;18.53;48.33
68822;BME280;55834;50.870;4.606;2023-05-08T12:02:40;101397.47;;;18.84;47.03
68822;BME280;55834;50.870;4.606;2023-05-08T12:05:07;101404.00;;;19.12;47.09
68822;BME280;55834;50.870;4.606;2023-05-08T12:07:43;101402.25;;;18.78;48.53
68822;BME280;55834;50.870;4.606;2023-05-08T12:10:10;101400.22;;;19.49;47.50
68822;BME280;55834;50.870;4.606;2023-05-08T12:12:37;101400.69;;;19.24;46.40
68822;BME280;55834;50.870;4.606;2023-05-08T12:15:10;101399.78;;;19.73;45.62
68822;BME280;55834;50.870;4.606;2023-05-08T12:17:36;101395.88;;;19.78;45.49
68822;BME280;55834;50.870;4.606;2023-05-08T12:20:15;101399.72;;;19.74;44.88
68822;BME280;55834;50.870;4.606;2023-05-08T12:22:41;101395.88;;;18.45;47.13
68822;BME280;55834;50.870;4.606;2023-05-08T12:25:09;101395.97;;;17.52;49.54
68822;BME280;55834;50.870;4.606;2023-05-08T12:27:36;101378.81;;;18.83;48.71
68822;BME280;55834;50.870;4.606;2023-05-08T12:30:09;101383.41;;;17.92;50.70
68822;BME280;55834;50.870;4.606;2023-05-08T12:32:42;101383.53;;;18.78;49.13
68822;BME280;55834;50.870;4.606;2023-05-08T12:35:09;101383.34;;;19.47;46.91
68822;BME280;55834;50.870;4.606;2023-05-08T12:37:36;101382.41;;;19.64;46.65
68822;BME280;55834;50.870;4.606;2023-05-08T12:40:02;101387.41;;;19.86;45.40
68822;BME280;55834;50.870;4.606;2023-05-08T12:42:47;101380.25;;;20.02;45.13
68822;BME280;55834;50.870;4.606;2023-05-08T12:45:27;101387.69;;;19.16;44.80
68822;BME280;55834;50.870;4.606;2023-05-08T12:47:58;101379.03;;;19.45;46.64
68822;BME280;55834;50.870;4.606;2023-05-08T12:50:24;101384.31;;;19.62;47.00
68822;BME280;55834;50.870;4.606;2023-05-08T12:52:50;101378.78;;;19.33;47.60
68822;BME280;55834;50.870;4.606;2023-05-08T12:55:25;101377.16;;;19.94;45.18
68822;BME280;55834;50.870;4.606;2023-05-08T12:58:10;101371.19;;;19.57;44.35
68822;BME280;55834;50.870;4.606;2023-05-08T13:03:09;101371.00;;;19.29;45.01
68822;BME280;55834;50.870;4.606;2023-05-08T13:05:40;101367.53;;;20.06;44.16
68822;BME280;55834;50.870;4.606;2023-05-08T13:08:07;101368.41;;;20.07;43.75
68822;BME280;55834;50.870;4.606;2023-05-08T13:10:52;101369.66;;;20.45;43.44
68822;BME280;55834;50.870;4.606;2023-05-08T13:13:19;101366.16;;;19.83;42.04
68822;BME280;55834;50.870;4.606;2023-05-08T13:15:49;101364.19;;;19.39;43.22
68822;BME280;55834;50.870;4.606;2023-05-08T13:18:15;101357.69;;;19.27;46.60
68822;BME280;55834;50.870;4.606;2023-05-08T13:20:54;101350.81;;;19.39;43.74
68822;BME280;55834;50.870;4.606;2023-05-08T13:23:20;101352.63;;;19.54;44.45
68822;BME280;55834;50.870;4.606;2023-05-08T13:25:46;101355.34;;;19.84;44.83
68822;BME280;55834;50.870;4.606;2023-05-08T13:28:11;101355.09;;;19.89;43.89
68822;BME280;55834;50.870;4.606;2023-05-08T13:30:37;101355.44;;;19.99;44.16
68822;BME280;55834;50.870;4.606;2023-05-08T13:33:04;101358.22;;;20.27;41.91
68822;BME280;55834;50.870;4.606;2023-05-08T13:35:29;101347.47;;;20.58;42.21
68822;BME280;55834;50.870;4.606;2023-05-08T13:37:55;101355.22;;;18.21;47.43
68822;BME280;55834;50.870;4.606;2023-05-08T13:40:21;101350.28;;;19.48;45.71
68822;BME280;55834;50.870;4.606;2023-05-08T13:42:47;101347.59;;;20.26;45.02
68822;BME280;55834;50.870;4.606;2023-05-08T13:45:12;101345.44;;;20.47;44.88